Time;durP1;ratioP1;P1;durP2;ratioP2;P2;SDS_P1;SDS_P2;PMS_P1;PMS_P2;Temp;Humidity;BMP_temperature;BMP_pressure;BME280_temperature;BME280_humidity;BME280_pressure;Samples;Min_cycle;Max_cycle;Signal;HPM_P1;HPM_P2
2021/04/04 00:00:23;;;;;;;27.38;18.15;;;9.80;57.00;;;;;;4992656;28;20474;-57
2021/04/04 00:02:49;;;;;;;24.33;17.15;;;9.80;57.70;;;;;;4994361;28;20027;-53
2021/04/04 00:05:15;;;;;;;26.05;17.90;;;9.70;57.10;;;;;;4994227;28;20022;-58
2021/04/04 00:07:42;;;;;;;23.63;16.90;;;9.70;57.20;;;;;;4994174;28;20039;-56
2021/04/04 00:10:10;;;;;;;28.25;18.67;;;9.70;57.20;;;;;;4993852;28;20032;-57
2021/04/04 00:12:36;;;;;;;25.27;17.08;;;9.70;57.20;;;;;;4993374;28;20030;-57
2021/04/04 00:15:09;;;;;;;21.85;15.55;;;9.70;57.20;;;;;;4993825;28;20046;-56
2021/04/04 00:17:36;;;;;;;20.80;14.00;;;9.60;56.90;;;;;;4993752;28;20030;-54
2021/04/04 00:20:09;;;;;;;20.45;12.13;;;9.70;56.60;;;;;;4993582;28;20026;-53
2021/04/04 00:22:35;;;;;;;16.50;12.05;;;9.70;56.50;;;;;;4992531;28;20027;-54
2021/04/04 00:25:03;;;;;;;17.70;12.77;;;9.70;56.50;;;;;;4993258;28;20117;-57
2021/04/04 00:27:28;;;;;;;19.05;12.30;;;9.70;56.60;;;;;;4992668;28;20113;-56
2021/04/04 00:29:54;;;;;;;16.75;11.45;;;9.70;56.40;;;;;;4993732;28;20054;-57
2021/04/04 00:32:20;;;;;;;14.68;12.40;;;9.70;56.40;;;;;;4992454;28;20058;-55
2021/04/04 00:34:45;;;;;;;19.50;12.23;;;9.70;56.40;;;;;;4993636;28;20378;-56
2021/04/04 00:37:11;;;;;;;18.40;12.30;;;9.70;55.90;;;;;;4992347;28;20038;-57
2021/04/04 00:39:37;;;;;;;20.15;13.27;;;9.70;55.50;;;;;;4992240;28;20022;-53
2021/04/04 00:42:04;;;;;;;19.48;12.90;;;9.80;55.30;;;;;;4992400;28;20505;-57
2021/04/04 00:44:30;;;;;;;16.98;12.65;;;9.80;55.30;;;;;;4993387;28;20056;-56
2021/04/04 00:46:55;;;;;;;20.27;13.15;;;9.80;55.10;;;;;;4993458;28;20427;-53
2021/04/04 00:49:21;;;;;;;20.52;14.27;;;9.80;54.90;;;;;;4991379;28;20027;-56
2021/04/04 00:51:46;;;;;;;22.15;15.60;;;9.80;55.20;;;;;;4991991;28;20494;-57
2021/04/04 00:54:13;;;;;;;21.23;14.40;;;9.80;55.50;;;;;;4991242;28;20069;-55
2021/04/04 00:56:39;;;;;;;20.60;14.82;;;9.80;55.60;;;;;;4992577;28;20085;-54
2021/04/04 00:59:04;;;;;;;20.67;16.42;;;9.80;55.80;;;;;;4993348;28;20422;-55
2021/04/04 01:01:33;;;;;;;36.47;16.92;;;9.70;56.00;;;;;;4992411;28;20390;-53
2021/04/04 01:03:59;;;;;;;26.75;17.38;;;9.70;56.50;;;;;;4993233;28;20033;-53
2021/04/04 01:06:24;;;;;;;24.55;17.33;;;9.70;56.80;;;;;;4993136;28;20379;-53
2021/04/04 01:08:50;;;;;;;28.70;17.35;;;9.70;56.60;;;;;;4992133;28;20117;-54
2021/04/04 01:11:22;;;;;;;24.98;18.50;;;9.60;56.70;;;;;;4992621;28;20022;-57
2021/04/04 01:13:51;;;;;;;23.27;17.13;;;9.60;56.70;;;;;;4993477;28;20379;-58
2021/04/04 01:16:34;;;;;;;26.65;16.67;;;9.60;56.60;;;;;;4990307;28;20020;-57
2021/04/04 01:19:10;;;;;;;26.25;17.35;;;9.60;56.70;;;;;;4992534;28;20030;-57
2021/04/04 01:21:46;;;;;;;25.02;17.83;;;9.60;56.70;;;;;;4993045;28;20105;-57
2021/04/04 01:24:43;;;;;;;28.88;19.35;;;9.50;56.60;;;;;;4992413;28;21509;-56
2021/04/04 01:27:35;;;;;;;27.77;18.95;;;9.50;56.60;;;;;;4991955;28;20034;-57
2021/04/04 01:30:01;;;;;;;;;;;9.50;56.60;;;;;;4992376;28;20493;-52
2021/04/04 01:32:27;;;;;;;27.08;17.20;;;9.40;56.50;;;;;;4991226;28;19933;-57
2021/04/04 01:34:52;;;;;;;27.33;18.50;;;9.30;56.70;;;;;;4992901;28;20032;-55
2021/04/04 01:37:19;;;;;;;30.67;18.65;;;9.30;56.80;;;;;;4992782;28;20110;-56
2021/04/04 01:39:58;;;;;;;25.63;18.13;;;9.30;57.20;;;;;;4996568;28;20054;-56
2021/04/04 01:42:24;;;;;;;24.67;16.73;;;9.20;57.80;;;;;;4996198;28;20033;-56
2021/04/04 01:44:51;;;;;;;25.23;16.35;;;9.20;58.00;;;;;;4996336;28;20030;-54
2021/04/04 01:47:18;;;;;;;20.58;14.77;;;9.10;58.30;;;;;;4995508;28;20064;-56
2021/04/04 01:49:46;;;;;;;21.05;15.00;;;9.00;59.20;;;;;;4996004;28;20022;-56
2021/04/04 01:52:13;;;;;;;20.60;15.02;;;9.00;59.40;;;;;;4995072;28;20041;-52
2021/04/04 01:54:40;;;;;;;18.70;14.02;;;8.90;59.40;;;;;;4994122;28;20034;-57
2021/04/04 01:57:07;;;;;;;23.35;14.73;;;8.80;59.70;;;;;;4995725;28;20034;-56
2021/04/04 01:59:33;;;;;;;20.80;15.73;;;8.80;60.00;;;;;;4996727;28;20061;-56
2021/04/04 02:01:59;;;;;;;19.55;14.63;;;8.70;60.50;;;;;;4995638;28;20034;-53
2021/04/04 02:04:26;;;;;;;20.90;14.65;;;8.70;60.50;;;;;;4996362;28;20026;-56
2021/04/04 02:06:53;;;;;;;21.23;15.65;;;8.60;60.80;;;;;;4995722;28;20030;-54
2021/04/04 02:09:20;;;;;;;20.20;15.05;;;8.60;60.40;;;;;;4995137;28;20084;-56
2021/04/04 02:11:48;;;;;;;20.88;15.32;;;8.60;60.20;;;;;;4995043;28;20496;-57
2021/04/04 02:14:17;;;;;;;24.77;16.48;;;8.70;60.20;;;;;;4996205;28;20034;-53
2021/04/04 02:16:47;;;;;;;23.83;17.27;;;8.70;59.60;;;;;;4995638;28;20034;-53
2021/04/04 02:19:17;;;;;;;25.13;16.57;;;8.70;60.10;;;;;;4995135;28;20130;-57
2021/04/04 02:21:47;;;;;;;23.58;16.83;;;8.80;59.10;;;;;;4994673;28;20276;-56
2021/04/04 02:24:13;;;;;;;22.27;16.58;;;8.80;59.10;;;;;;4993646;28;20109;-58
2021/04/04 02:26:39;;;;;;;20.85;15.63;;;8.90;58.90;;;;;;4992348;28;20027;-56
2021/04/04 02:29:06;;;;;;;23.45;16.52;;;8.90;58.60;;;;;;4995197;28;20040;-57
2021/04/04 02:31:38;;;;;;;21.83;15.02;;;8.90;58.50;;;;;;4992079;28;20030;-57
2021/04/04 02:34:13;;;;;;;21.83;16.00;;;8.90;58.50;;;;;;4994280;28;20014;-56
2021/04/04 02:36:40;;;;;;;22.65;16.05;;;8.90;58.50;;;;;;4995031;28;20027;-56
2021/04/04 02:39:13;;;;;;;21.90;15.68;;;8.90;58.70;;;;;;4995590;28;20050;-55
2021/04/04 02:41:40;;;;;;;23.00;15.75;;;8.90;58.60;;;;;;4995056;28;20462;-57
2021/04/04 02:44:07;;;;;;;22.55;15.18;;;8.90;58.30;;;;;;4994661;28;20442;-57
2021/04/04 02:46:34;;;;;;;22.67;15.85;;;9.00;57.90;;;;;;4995747;28;20022;-55
2021/04/04 02:49:03;;;;;;;22.70;14.35;;;9.00;57.70;;;;;;4995082;28;20358;-56
2021/04/04 02:51:38;;;;;;;19.33;14.63;;;9.00;57.30;;;;;;4994878;28;20097;-55
2021/04/04 02:54:06;;;;;;;22.55;16.23;;;9.00;57.40;;;;;;4991996;28;20049;-57
2021/04/04 02:56:38;;;;;;;24.77;16.48;;;9.00;57.50;;;;;;4994176;28;20034;-57
2021/04/04 02:59:08;;;;;;;23.52;16.90;;;9.00;57.70;;;;;;4993555;28;20057;-55
2021/04/04 03:01:36;;;;;;;23.75;15.65;;;9.00;58.10;;;;;;4995070;28;20108;-57
2021/04/04 03:04:04;;;;;;;24.08;16.52;;;9.00;58.00;;;;;;4995343;28;20026;-53
2021/04/04 03:06:32;;;;;;;21.98;15.95;;;9.00;57.90;;;;;;4994701;28;20052;-56
2021/04/04 03:09:02;;;;;;;20.00;14.35;;;9.00;57.90;;;;;;4995306;28;20030;-53
2021/04/04 03:11:29;;;;;;;19.17;14.20;;;9.00;57.70;;;;;;4995260;28;20018;-57
2021/04/04 03:13:55;;;;;;;21.20;15.38;;;9.00;57.20;;;;;;4995361;28;20065;-57
2021/04/04 03:16:21;;;;;;;24.00;17.02;;;9.00;57.10;;;;;;4995120;28;20433;-56
2021/04/04 03:18:48;;;;;;;27.13;18.50;;;9.10;57.20;;;;;;4994880;28;20018;-55
2021/04/04 03:21:16;;;;;;;25.92;17.75;;;9.10;57.00;;;;;;4994747;28;20039;-55
2021/04/04 03:23:43;;;;;;;24.27;17.13;;;9.10;57.10;;;;;;4994507;28;20049;-55
2021/04/04 03:26:10;;;;;;;22.45;17.50;;;9.10;57.10;;;;;;4994319;28;20482;-56
2021/04/04 03:28:37;;;;;;;22.10;16.58;;;9.20;57.20;;;;;;4994184;28;20410;-57
2021/04/04 03:31:04;;;;;;;23.52;16.88;;;9.20;57.30;;;;;;4994418;28;20026;-58
2021/04/04 03:33:30;;;;;;;21.95;16.40;;;9.20;57.60;;;;;;4994534;28;20384;-58
2021/04/04 03:35:57;;;;;;;24.67;17.50;;;9.20;57.50;;;;;;4994204;28;20037;-57
2021/04/04 03:38:25;;;;;;;27.45;17.55;;;9.10;57.60;;;;;;4994529;28;20045;-55
2021/04/04 03:40:53;;;;;;;19.38;14.65;;;9.20;57.70;;;;;;4994756;28;20030;-56
2021/04/04 03:43:25;;;;;;;20.83;15.48;;;9.10;57.80;;;;;;4994116;28;20026;-57
2021/04/04 03:45:53;;;;;;;18.92;14.15;;;9.10;58.00;;;;;;4994747;28;20019;-55
2021/04/04 03:48:21;;;;;;;22.35;14.60;;;9.10;58.10;;;;;;4994513;28;20023;-57
2021/04/04 03:50:48;;;;;;;22.67;15.25;;;9.10;58.30;;;;;;4994596;28;20050;-57
2021/04/04 03:53:21;;;;;;;20.27;16.02;;;9.10;58.50;;;;;;4992501;28;20029;-57
2021/04/04 03:55:53;;;;;;;23.58;15.90;;;9.10;58.60;;;;;;4992564;28;20109;-55
2021/04/04 03:58:22;;;;;;;23.00;16.23;;;9.10;58.40;;;;;;4993916;28;20037;-56
2021/04/04 04:00:50;;;;;;;21.85;15.65;;;9.10;58.40;;;;;;4991770;28;20102;-57
2021/04/04 04:03:17;;;;;;;25.27;17.38;;;9.10;58.60;;;;;;4994444;28;20501;-56
2021/04/04 04:05:45;;;;;;;21.58;15.82;;;9.20;58.70;;;;;;4994258;28;20018;-56
2021/04/04 04:08:11;;;;;;;23.83;17.23;;;9.20;58.50;;;;;;4993713;28;20026;-53
2021/04/04 04:10:40;;;;;;;23.88;16.63;;;9.20;58.40;;;;;;4994010;28;20026;-55
2021/04/04 04:13:07;;;;;;;24.73;17.30;;;9.30;58.40;;;;;;4993744;28;20038;-56
2021/04/04 04:15:33;;;;;;;23.63;17.50;;;9.30;58.30;;;;;;4993997;28;20022;-57
2021/04/04 04:18:00;;;;;;;26.50;17.55;;;9.30;58.40;;;;;;4990864;28;20513;-55
2021/04/04 04:20:27;;;;;;;24.58;17.08;;;9.40;58.60;;;;;;4993678;28;20021;-56
2021/04/04 04:22:56;;;;;;;25.10;17.65;;;9.50;58.60;;;;;;4992681;28;20113;-57
2021/04/04 04:25:23;;;;;;;25.50;17.10;;;9.50;58.80;;;;;;4993277;28;20019;-55
2021/04/04 04:27:49;;;;;;;26.67;17.63;;;9.50;58.90;;;;;;4992877;28;20471;-55
2021/04/04 04:30:16;;;;;;;23.75;16.98;;;9.60;58.70;;;;;;4993727;28;20042;-56
2021/04/04 04:32:43;;;;;;;25.50;18.83;;;9.60;58.60;;;;;;4993340;28;20034;-54
2021/04/04 04:35:10;;;;;;;24.38;17.98;;;9.70;58.70;;;;;;4994222;28;20030;-54
2021/04/04 04:37:39;;;;;;;31.25;20.73;;;9.70;58.60;;;;;;4993284;28;20073;-57
2021/04/04 04:40:08;;;;;;;26.58;19.92;;;9.80;58.60;;;;;;4993667;28;20022;-57
2021/04/04 04:42:35;;;;;;;27.80;19.58;;;9.80;58.80;;;;;;4991707;28;20030;-55
2021/04/04 04:45:03;;;;;;;28.73;20.38;;;9.90;58.60;;;;;;4993474;28;20049;-56
2021/04/04 04:47:30;;;;;;;27.30;19.60;;;10.00;58.60;;;;;;4992944;28;20081;-55
2021/04/04 04:49:56;;;;;;;26.33;19.08;;;10.10;58.80;;;;;;4993234;28;20204;-57
2021/04/04 04:52:23;;;;;;;23.00;17.35;;;10.20;59.20;;;;;;4992414;28;20022;-56
2021/04/04 04:54:49;;;;;;;28.95;18.88;;;10.30;59.00;;;;;;4993492;28;20034;-53
2021/04/04 04:57:16;;;;;;;27.00;18.10;;;10.40;59.10;;;;;;4991593;28;20410;-54
2021/04/04 04:59:42;;;;;;;27.20;19.27;;;10.50;59.10;;;;;;4992275;28;20033;-56
2021/04/04 05:02:11;;;;;;;28.65;19.63;;;10.60;59.00;;;;;;4992759;28;20083;-55
2021/04/04 05:04:38;;;;;;;27.65;20.55;;;10.70;58.80;;;;;;4993430;28;20022;-57
2021/04/04 05:07:04;;;;;;;26.05;20.20;;;10.80;58.60;;;;;;4991814;28;20034;-57
2021/04/04 05:09:34;;;;;;;26.40;20.10;;;10.80;58.60;;;;;;4993131;28;20026;-57
2021/04/04 05:12:01;;;;;;;27.80;20.08;;;10.90;58.30;;;;;;4992641;28;20049;-53
2021/04/04 05:14:27;;;;;;;29.48;20.70;;;10.90;58.10;;;;;;4993009;28;20022;-53
2021/04/04 05:16:53;;;;;;;26.58;18.98;;;10.90;58.00;;;;;;4992794;28;20394;-56
2021/04/04 05:19:19;;;;;;;27.08;20.25;;;11.00;57.60;;;;;;4992966;28;20033;-57
2021/04/04 05:21:45;;;;;;;28.65;19.55;;;11.00;57.50;;;;;;4992296;28;20430;-57
2021/04/04 05:24:13;;;;;;;27.38;20.10;;;11.10;57.60;;;;;;4992059;28;20463;-56
2021/04/04 05:26:47;;;;;;;27.23;19.70;;;11.10;57.50;;;;;;4992852;28;20057;-57
2021/04/04 05:29:18;;;;;;;26.23;16.52;;;11.10;57.30;;;;;;4992482;28;20034;-53
2021/04/04 05:31:47;;;;;;;16.80;12.55;;;11.20;57.00;;;;;;4991087;28;20035;-57
2021/04/04 05:34:15;;;;;;;15.90;11.32;;;11.30;56.50;;;;;;4993012;28;20057;-57
2021/04/04 05:36:53;;;;;;;16.23;9.98;;;11.30;56.00;;;;;;4992740;28;20042;-55
2021/04/04 05:39:22;;;;;;;13.48;9.52;;;11.40;55.40;;;;;;4993219;28;20458;-56
2021/04/04 05:41:51;;;;;;;13.88;9.77;;;11.40;55.30;;;;;;4992265;28;20033;-55
2021/04/04 05:44:36;;;;;;;15.18;10.10;;;11.50;55.20;;;;;;4993077;28;20015;-56
2021/04/04 05:47:11;;;;;;;11.13;8.90;;;11.60;55.20;;;;;;4992575;28;20035;-56
2021/04/04 05:49:58;;;;;;;18.75;12.82;;;11.60;55.40;;;;;;4992587;28;20025;-57
2021/04/04 05:52:40;;;;;;;23.73;14.52;;;11.60;55.30;;;;;;4991603;28;20026;-57
2021/04/04 05:55:36;;;;;;;21.75;14.93;;;11.60;55.70;;;;;;4992966;28;20548;-55
2021/04/04 05:58:17;;;;;;;21.80;15.20;;;11.50;55.80;;;;;;4991860;28;20023;-54
2021/04/04 06:00:46;;;;;;;20.58;15.10;;;11.40;56.90;;;;;;4988480;28;20034;-56
2021/04/04 06:03:12;;;;;;;20.50;14.27;;;11.20;56.50;;;;;;4992214;28;20471;-57
2021/04/04 06:06:16;;;;;;;22.20;14.50;;;11.10;56.40;;;;;;4992347;28;20084;-56
2021/04/04 06:09:12;;;;;;;19.25;14.45;;;11.00;56.20;;;;;;4992137;28;20431;-55
2021/04/04 06:12:01;;;;;;;18.63;13.73;;;10.80;56.40;;;;;;4992155;28;20026;-56
2021/04/04 06:14:46;;;;;;;21.17;14.43;;;10.70;56.70;;;;;;4991367;28;20018;-56
2021/04/04 06:17:30;;;;;;;23.17;16.05;;;10.60;56.70;;;;;;4990796;28;20426;-53
2021/04/04 06:20:04;;;;;;;24.13;16.90;;;10.60;57.00;;;;;;4992615;28;20026;-55
2021/04/04 06:22:59;;;;;;;23.42;15.40;;;10.60;57.20;;;;;;4990168;28;20479;-57
2021/04/04 06:25:27;;;;;;;20.05;14.95;;;10.50;57.30;;;;;;4993272;28;20018;-56
2021/04/04 06:28:15;;;;;;;24.58;16.10;;;10.50;57.60;;;;;;4995306;28;20031;-56
2021/04/04 06:31:00;;;;;;;20.60;14.40;;;10.50;57.60;;;;;;4991876;28;20394;-55
2021/04/04 06:33:31;;;;;;;22.52;15.50;;;10.50;57.70;;;;;;4994006;28;20041;-57
2021/04/04 06:36:21;;;;;;;23.70;15.77;;;10.50;57.80;;;;;;4995628;28;20030;-57
2021/04/04 06:39:14;;;;;;;22.90;16.48;;;10.50;57.90;;;;;;4994370;28;20077;-56
2021/04/04 06:41:49;;;;;;;23.02;15.88;;;10.50;58.20;;;;;;4995211;28;20036;-57
2021/04/04 06:44:23;;;;;;;25.40;16.98;;;10.60;58.00;;;;;;4995074;28;20060;-57
2021/04/04 06:46:54;;;;;;;23.55;16.98;;;10.60;58.00;;;;;;4995530;28;20466;-54
2021/04/04 06:49:39;;;;;;;25.30;17.52;;;10.70;58.00;;;;;;4996050;28;20027;-57
2021/04/04 06:52:35;;;;;;;26.05;17.83;;;10.70;57.80;;;;;;4992728;28;20085;-57
2021/04/04 06:55:42;;;;;;;25.80;17.73;;;10.80;58.00;;;;;;4994959;28;20750;-56
2021/04/04 06:58:17;;;;;;;26.35;17.05;;;10.80;58.10;;;;;;4992930;28;20113;-53
2021/04/04 07:00:53;;;;;;;25.67;18.30;;;10.90;58.00;;;;;;4989926;28;20061;-56
2021/04/04 07:03:23;;;;;;;25.85;16.45;;;11.00;57.90;;;;;;4990516;28;20038;-56
2021/04/04 07:06:19;;;;;;;25.48;17.90;;;11.00;58.10;;;;;;4994735;28;20029;-56
2021/04/04 07:09:03;;;;;;;24.80;17.73;;;11.20;58.10;;;;;;4995378;28;20073;-57
2021/04/04 07:11:36;;;;;;;22.48;16.67;;;11.30;58.10;;;;;;4995062;28;20104;-55
2021/04/04 07:14:17;;;;;;;23.08;16.35;;;11.40;58.20;;;;;;4994858;28;20409;-55
2021/04/04 07:16:58;;;;;;;20.23;14.98;;;11.40;57.70;;;;;;4994895;28;20031;-57
2021/04/04 07:19:45;;;;;;;21.38;14.95;;;11.60;57.70;;;;;;4992965;28;20025;-57
2021/04/04 07:22:22;;;;;;;19.88;14.25;;;11.70;57.60;;;;;;4992560;28;20105;-57
2021/04/04 07:25:18;;;;;;;21.73;14.68;;;11.80;57.20;;;;;;4993747;28;20072;-57
2021/04/04 07:27:59;;;;;;;21.83;14.70;;;11.90;56.90;;;;;;4994499;28;20086;-54
2021/04/04 07:30:54;;;;;;;19.63;15.23;;;12.00;56.90;;;;;;4995037;28;20026;-55
2021/04/04 07:33:41;;;;;;;21.42;14.45;;;12.10;57.10;;;;;;4993975;28;20025;-56
2021/04/04 07:36:13;;;;;;;22.20;14.60;;;12.10;56.80;;;;;;4991055;28;20034;-55
2021/04/04 07:38:48;;;;;;;21.33;15.35;;;12.20;57.00;;;;;;4994827;28;20121;-57
2021/04/04 07:41:37;;;;;;;20.77;14.95;;;12.20;57.10;;;;;;4994129;28;20120;-57
2021/04/04 07:44:40;;;;;;;21.58;14.00;;;12.20;57.20;;;;;;4992378;28;20088;-53
2021/04/04 07:47:23;;;;;;;20.73;14.02;;;12.20;57.00;;;;;;4994385;28;20030;-55
2021/04/04 07:49:53;;;;;;;16.92;12.60;;;12.20;57.20;;;;;;4994478;28;20029;-54
2021/04/04 07:52:32;;;;;;;17.85;13.00;;;12.20;57.20;;;;;;4992708;28;20065;-56
2021/04/04 07:55:10;;;;;;;19.13;13.05;;;12.20;57.10;;;;;;4994501;28;20077;-56
2021/04/04 07:57:51;;;;;;;18.15;12.18;;;12.10;57.00;;;;;;4993842;28;20069;-55
2021/04/04 08:00:19;;;;;;;20.08;13.98;;;12.10;57.10;;;;;;4993876;28;20125;-56
2021/04/04 08:02:54;;;;;;;19.30;14.07;;;12.10;57.00;;;;;;4992331;28;20035;-57
2021/04/04 08:05:28;;;;;;;17.70;13.30;;;12.10;56.90;;;;;;4993269;28;20047;-57
2021/04/04 08:07:59;;;;;;;18.55;13.02;;;12.20;56.80;;;;;;4990163;28;20045;-55
2021/04/04 08:10:34;;;;;;;20.63;13.82;;;12.20;56.30;;;;;;4994493;28;20023;-55
2021/04/04 08:13:24;;;;;;;18.90;13.07;;;12.20;56.00;;;;;;4993572;28;20038;-54
2021/04/04 08:16:03;;;;;;;20.23;13.68;;;12.20;56.10;;;;;;4992807;28;20129;-57
2021/04/04 08:18:29;;;;;;;19.42;13.45;;;12.20;55.90;;;;;;4993702;28;20034;-53
2021/04/04 08:21:09;;;;;;;17.27;12.95;;;12.30;55.90;;;;;;4994244;28;20113;-55
2021/04/04 08:23:59;;;;;;;16.30;13.02;;;12.30;55.60;;;;;;4991668;28;20022;-56
2021/04/04 08:26:41;;;;;;;16.67;12.25;;;12.30;55.50;;;;;;4993322;28;20022;-57
2021/04/04 08:29:16;;;;;;;15.23;11.95;;;12.30;55.20;;;;;;4994262;28;20109;-57
2021/04/04 08:31:55;;;;;;;14.50;11.50;;;12.30;55.10;;;;;;4992904;28;20030;-55
2021/04/04 08:34:35;;;;;;;14.85;10.45;;;12.30;54.90;;;;;;4992839;28;20029;-58
2021/04/04 08:37:06;;;;;;;13.40;9.00;;;12.30;54.90;;;;;;4993097;28;20026;-57
2021/04/04 08:39:34;;;;;;;13.23;9.20;;;12.30;55.00;;;;;;4993928;28;20535;-58
2021/04/04 08:42:04;;;;;;;11.75;8.73;;;12.30;54.80;;;;;;4992130;28;20114;-57
2021/04/04 08:44:43;;;;;;;12.55;8.23;;;12.30;54.40;;;;;;4993159;28;20030;-56
2021/04/04 08:47:29;;;;;;;11.25;7.68;;;12.40;54.20;;;;;;4992291;28;20029;-57
2021/04/04 08:49:59;;;;;;;10.15;8.30;;;12.40;53.90;;;;;;4993574;28;20026;-58
2021/04/04 08:53:06;;;;;;;10.35;7.35;;;12.40;53.90;;;;;;4991658;28;20599;-53
2021/04/04 08:55:32;;;;;;;10.05;6.93;;;12.40;53.20;;;;;;5009070;28;20441;-57
2021/04/04 08:58:02;;;;;;;7.70;6.28;;;12.40;52.80;;;;;;4995618;28;20070;-55
2021/04/04 09:00:29;;;;;;;9.35;6.50;;;12.40;52.20;;;;;;4992742;28;20026;-55
2021/04/04 09:03:07;;;;;;;9.15;6.30;;;12.40;51.40;;;;;;4992965;28;20034;-55
2021/04/04 09:05:34;;;;;;;8.55;6.40;;;12.40;50.70;;;;;;4993042;28;20034;-55
2021/04/04 09:08:02;;;;;;;9.20;6.40;;;12.40;50.40;;;;;;4992474;28;20402;-57
2021/04/04 09:10:32;;;;;;;8.13;6.00;;;12.40;50.10;;;;;;4992636;28;20030;-57
2021/04/04 09:12:58;;;;;;;10.85;6.93;;;12.40;50.40;;;;;;4992596;28;20038;-56
2021/04/04 09:15:25;;;;;;;9.32;6.78;;;12.40;49.50;;;;;;4993021;28;20058;-55
2021/04/04 09:17:57;;;;;;;7.60;6.10;;;12.40;49.40;;;;;;4992999;28;20036;-56
2021/04/04 09:20:43;;;;;;;10.18;6.55;;;12.40;49.20;;;;;;4993157;28;20011;-55
2021/04/04 09:23:10;;;;;;;8.65;5.75;;;12.30;48.80;;;;;;4990073;28;20490;-57
2021/04/04 09:25:40;;;;;;;7.15;5.80;;;12.30;48.90;;;;;;4993391;28;20015;-57
2021/04/04 09:28:09;;;;;;;8.43;5.57;;;12.30;48.50;;;;;;4992051;28;20359;-56
2021/04/04 09:30:44;;;;;;;7.35;4.57;;;12.30;48.10;;;;;;4992481;28;20041;-52
2021/04/04 09:33:12;;;;;;;6.35;4.65;;;12.40;47.40;;;;;;4991091;28;20030;-57
2021/04/04 09:35:40;;;;;;;5.63;4.38;;;12.30;47.80;;;;;;4992014;28;20391;-53
2021/04/04 09:38:11;;;;;;;8.43;4.72;;;12.30;46.80;;;;;;4992798;28;20077;-57
2021/04/04 09:40:39;;;;;;;8.07;4.00;;;12.30;46.40;;;;;;4992390;28;20050;-56
2021/04/04 09:43:07;;;;;;;4.47;2.97;;;12.40;46.30;;;;;;4992232;28;20483;-57
2021/04/04 09:45:33;;;;;;;3.72;3.03;;;12.40;45.70;;;;;;4992909;28;20023;-57
2021/04/04 09:48:37;;;;;;;4.65;3.15;;;12.40;45.20;;;;;;4992116;28;20117;-57
2021/04/04 09:51:16;;;;;;;4.38;3.17;;;12.40;44.90;;;;;;4992202;28;20039;-57
2021/04/04 09:53:49;;;;;;;5.05;3.20;;;12.40;45.20;;;;;;4992091;28;20359;-56
2021/04/04 09:56:27;;;;;;;6.32;3.33;;;12.50;45.20;;;;;;4993201;28;20018;-55
2021/04/04 09:58:53;;;;;;;3.95;3.30;;;12.50;45.10;;;;;;4991656;28;20038;-56
2021/04/04 10:01:31;;;;;;;3.45;3.05;;;12.60;45.10;;;;;;4996576;28;20081;-55
2021/04/04 10:04:06;;;;;;;4.20;3.33;;;12.60;45.00;;;;;;4995185;28;20106;-55
2021/04/04 10:06:34;;;;;;;7.45;3.85;;;12.60;44.70;;;;;;4993759;28;20084;-57
2021/04/04 10:09:08;;;;;;;4.57;3.28;;;12.70;44.70;;;;;;4996426;28;20026;-57
2021/04/04 10:11:35;;;;;;;4.78;3.70;;;12.70;44.90;;;;;;4995262;28;20474;-58
2021/04/04 10:14:16;;;;;;;4.85;3.50;;;12.80;44.80;;;;;;4995687;28;20022;-56
2021/04/04 10:16:43;;;;;;;7.40;3.97;;;12.90;44.30;;;;;;4995615;28;20038;-57
2021/04/04 10:19:15;;;;;;;4.70;3.53;;;12.80;45.00;;;;;;4996356;28;20038;-56
2021/04/04 10:21:54;;;;;;;5.55;3.90;;;12.90;44.70;;;;;;4996409;28;20019;-58
2021/04/04 10:24:34;;;;;;;5.03;3.55;;;12.90;44.60;;;;;;4995509;28;20062;-57
2021/04/04 10:27:30;;;;;;;4.93;3.65;;;13.00;44.50;;;;;;4995911;28;20577;-56
2021/04/04 10:30:15;;;;;;;7.47;4.00;;;13.00;44.40;;;;;;4995267;28;20038;-58
2021/04/04 10:32:47;;;;;;;4.70;3.58;;;13.00;44.30;;;;;;4994379;28;20037;-57
2021/04/04 10:35:34;;;;;;;5.68;3.83;;;13.00;44.30;;;;;;4995847;28;20037;-57
2021/04/04 10:38:03;;;;;;;5.25;3.67;;;13.00;44.20;;;;;;4995158;28;20042;-58
2021/04/04 10:40:53;;;;;;;3.92;3.50;;;13.00;44.10;;;;;;4996192;28;20474;-57
2021/04/04 10:43:40;;;;;;;5.68;3.72;;;13.00;44.00;;;;;;4995865;28;20053;-58
2021/04/04 10:46:14;;;;;;;5.18;3.70;;;13.00;44.30;;;;;;4995292;28;20018;-58
2021/04/04 10:48:47;;;;;;;4.30;3.25;;;13.00;44.30;;;;;;4995555;28;20030;-58
2021/04/04 10:51:15;;;;;;;5.05;3.30;;;13.00;44.20;;;;;;4995695;28;20042;-57
2021/04/04 10:53:42;;;;;;;5.68;3.92;;;13.00;44.10;;;;;;4994774;28;20023;-56
2021/04/04 10:56:09;;;;;;;15.25;9.20;;;13.00;43.90;;;;;;4994582;28;20049;-57
2021/04/04 10:58:35;;;;;;;22.45;14.48;;;13.00;43.90;;;;;;4995479;28;20026;-56
2021/04/04 11:01:03;;;;;;;13.35;9.90;;;13.10;44.00;;;;;;4993850;28;20034;-57
2021/04/04 11:03:30;;;;;;;9.50;7.47;;;13.10;43.90;;;;;;4990836;28;20310;-56
2021/04/04 11:05:57;;;;;;;7.55;5.68;;;13.10;45.00;;;;;;4994245;28;20061;-54
2021/04/04 11:08:23;;;;;;;8.07;4.72;;;13.10;44.50;;;;;;4993239;28;20386;-56
2021/04/04 11:10:49;;;;;;;6.65;4.47;;;13.10;45.00;;;;;;4994329;28;20022;-56
2021/04/04 11:13:16;;;;;;;7.80;5.57;;;13.10;45.70;;;;;;4993385;28;20470;-57
2021/04/04 11:15:49;;;;;;;7.20;5.53;;;13.10;46.20;;;;;;4992740;28;20031;-56
2021/04/04 11:18:18;;;;;;;6.25;5.07;;;13.10;46.40;;;;;;4992964;28;20058;-57
2021/04/04 11:20:47;;;;;;;7.38;4.60;;;13.20;46.50;;;;;;4993125;28;20484;-53
2021/04/04 11:23:17;;;;;;;6.85;4.72;;;13.20;46.50;;;;;;4995255;28;20029;-55
2021/04/04 11:25:43;;;;;;;5.40;4.30;;;13.30;46.50;;;;;;4995266;28;20069;-53
2021/04/04 11:28:20;;;;;;;6.38;3.97;;;13.30;46.60;;;;;;4994995;28;20105;-57
2021/04/04 11:30:47;;;;;;;4.88;3.65;;;13.30;46.30;;;;;;4993593;28;20031;-58
2021/04/04 11:33:16;;;;;;;6.28;4.38;;;13.20;46.10;;;;;;4995159;28;20041;-54
2021/04/04 11:36:08;;;;;;;5.97;4.38;;;13.10;46.20;;;;;;4993010;28;20546;-57
2021/04/04 11:38:37;;;;;;;8.82;4.50;;;13.00;46.10;;;;;;4992474;28;20025;-56
2021/04/04 11:41:22;;;;;;;8.10;4.80;;;12.80;45.90;;;;;;4993859;28;20022;-55
2021/04/04 11:44:18;;;;;;;9.70;4.90;;;12.80;45.60;;;;;;4994199;28;20053;-53
2021/04/04 11:46:52;;;;;;;5.63;4.53;;;12.80;45.60;;;;;;4993280;28;20030;-56
2021/04/04 11:49:40;;;;;;;6.70;4.20;;;12.70;45.80;;;;;;4995803;28;20447;-53
2021/04/04 11:52:11;;;;;;;6.07;4.15;;;12.70;46.10;;;;;;4994972;28;20049;-56
2021/04/04 11:54:46;;;;;;;;;;;12.70;46.20;;;;;;4992665;28;20116;-54
2021/04/04 11:57:12;;;;;;;6.03;4.28;;;12.70;46.30;;;;;;4993812;28;19976;-55
2021/04/04 11:59:38;;;;;;;6.13;4.28;;;12.70;46.50;;;;;;4994046;28;20028;-57
2021/04/04 12:02:04;;;;;;;5.90;4.30;;;12.70;46.40;;;;;;4993260;28;20029;-55
2021/04/04 12:07:13;;;;;;;6.07;4.18;;;12.80;46.70;;;;;;4992848;28;20034;-54
2021/04/04 12:09:40;;;;;;;4.97;3.88;;;12.80;46.90;;;;;;4992193;28;20042;-57
2021/04/04 12:12:07;;;;;;;6.00;4.57;;;12.80;47.10;;;;;;4992259;28;20390;-57
2021/04/04 12:14:48;;;;;;;6.72;4.15;;;12.80;47.20;;;;;;4992221;28;20108;-57
2021/04/04 12:17:18;;;;;;;5.68;4.57;;;12.90;47.50;;;;;;4990363;28;20041;-57
2021/04/04 12:19:45;;;;;;;6.88;4.32;;;12.90;47.50;;;;;;4988581;28;20094;-56
2021/04/04 12:22:14;;;;;;;4.70;4.20;;;13.00;47.70;;;;;;4991617;28;20023;-57
2021/04/04 12:24:41;;;;;;;6.22;4.53;;;13.10;47.80;;;;;;4990680;28;20058;-55
2021/04/04 12:27:07;;;;;;;6.88;4.30;;;13.10;47.70;;;;;;4991272;28;20441;-56
2021/04/04 12:29:47;;;;;;;8.27;4.90;;;13.20;47.60;;;;;;4991243;28;20088;-53
2021/04/04 12:32:29;;;;;;;7.25;4.00;;;13.30;48.00;;;;;;4991272;28;20113;-55
2021/04/04 12:35:03;;;;;;;6.00;4.30;;;13.30;47.80;;;;;;4992354;28;20378;-56
2021/04/04 12:37:32;;;;;;;6.63;4.25;;;13.30;47.60;;;;;;4991534;28;20354;-56
2021/04/04 12:40:01;;;;;;;5.18;3.90;;;13.40;47.50;;;;;;4991248;28;20069;-53
2021/04/04 12:42:35;;;;;;;5.47;4.32;;;13.50;47.40;;;;;;4990811;28;20428;-57
2021/04/04 12:45:12;;;;;;;6.10;4.80;;;13.50;47.10;;;;;;4992068;28;20026;-56
2021/04/04 12:47:40;;;;;;;6.00;4.50;;;13.60;47.00;;;;;;4992132;28;20375;-55
2021/04/04 12:50:14;;;;;;;5.35;4.30;;;13.60;46.80;;;;;;4992344;28;20486;-58
2021/04/04 12:52:51;;;;;;;6.82;4.60;;;13.70;46.70;;;;;;4990897;28;20042;-54
2021/04/04 12:55:22;;;;;;;5.43;4.35;;;13.80;46.50;;;;;;4994262;28;20037;-57
2021/04/04 12:57:53;;;;;;;5.67;3.90;;;13.70;46.30;;;;;;4990059;28;20181;-57
2021/04/04 13:00:29;;;;;;;6.38;4.75;;;13.60;46.10;;;;;;4993024;28;20383;-58
2021/04/04 13:02:58;;;;;;;6.90;4.03;;;13.60;46.30;;;;;;4993310;28;20541;-54
2021/04/04 13:05:25;;;;;;;6.28;3.47;;;13.50;46.60;;;;;;4993311;28;20552;-57
2021/04/04 13:07:52;;;;;;;7.50;4.40;;;13.40;46.70;;;;;;4992839;28;20030;-54